Terminal Aerodrome Forecast
Issued by NWS

Home | Current Version | Previous Version | Text Only | Print | Product List | Glossary On
Versions: 1 2 3 4 5 6 7 8 9 10 11 12 13 14 15 16
000
FTUS43 KICT 042320
TAFSLN
TAF
KSLN 042320Z 0500/0524 01010KT P6SM BKN250
     FM051900 22011G17KT P6SM SKC
     FM052100 22010KT P6SM SKC=

USA.gov is the U.S. government's official web portal to all federal, state and local government web resources and services.